Time;durP1;ratioP1;P1;durP2;ratioP2;P2;SDS_P1;SDS_P2;PMS_P1;PMS_P2;Temp;Humidity;BMP_temperature;BMP_pressure;BME280_temperature;BME280_humidity;BME280_pressure;Samples;Min_cycle;Max_cycle;Signal;HPM_P1;HPM_P2
2022/02/17 00:00:18;;;;;;;3.73;1.90;;;;;;;9.43;100.00;97466.19;3539564;82;98938;-88
2022/02/17 00:05:21;;;;;;;5.37;2.10;;;;;;;9.40;100.00;97454.70;3542930;82;25877;-91
2022/02/17 00:10:26;;;;;;;5.65;2.35;;;;;;;9.38;100.00;97470.23;3530336;82;98939;-93
2022/02/17 00:15:29;;;;;;;4.97;2.08;;;;;;;9.33;100.00;97448.08;3547782;82;97691;-92
2022/02/17 00:20:30;;;;;;;4.90;2.40;;;;;;;9.29;100.00;97418.59;3541747;82;98532;-89
2022/02/17 00:25:31;;;;;;;4.90;2.60;;;;;;;9.22;100.00;97404.49;3546586;82;98762;-90
2022/02/17 00:30:32;;;;;;;4.80;2.17;;;;;;;9.20;100.00;97394.57;3511872;82;98037;-93
2022/02/17 00:35:33;;;;;;;6.27;2.47;;;;;;;9.20;100.00;97358.13;3541451;82;33172;-90
2022/02/17 00:40:34;;;;;;;5.10;2.50;;;;;;;9.20;100.00;97349.30;3532394;82;98686;-89
2022/02/17 00:45:35;;;;;;;5.23;2.37;;;;;;;9.23;100.00;97314.14;3564924;82;98608;-91
2022/02/17 00:50:36;;;;;;;6.67;2.30;;;;;;;9.25;100.00;97293.88;3542268;82;98454;-90
2022/02/17 00:55:37;;;;;;;3.70;2.20;;;;;;;9.29;100.00;97279.44;3540751;82;98773;-90
2022/02/17 01:00:38;;;;;;;3.40;2.00;;;;;;;9.37;100.00;97264.87;3532559;82;98948;-88
2022/02/17 01:05:39;;;;;;;4.33;2.10;;;;;;;9.46;100.00;97246.50;3551103;82;33066;-86
2022/02/17 01:10:40;;;;;;;4.65;2.10;;;;;;;9.54;100.00;97245.02;3538312;82;98759;-89
2022/02/17 01:15:41;;;;;;;5.43;2.07;;;;;;;9.60;100.00;97238.37;3553152;82;99056;-89
2022/02/17 01:20:42;;;;;;;3.90;2.10;;;;;;;9.68;100.00;97218.45;3536976;82;98685;-86
2022/02/17 01:25:43;;;;;;;4.10;2.10;;;;;;;9.79;100.00;97196.08;3543886;80;98939;-89
2022/02/17 01:30:44;;;;;;;3.10;1.80;;;;;;;9.90;100.00;97186.23;3536182;82;99067;-86
2022/02/17 01:35:45;;;;;;;4.53;2.17;;;;;;;9.96;100.00;97169.92;3554413;82;31625;-90
2022/02/17 01:40:46;;;;;;;2.07;1.57;;;;;;;10.04;100.00;97159.61;3538801;82;98740;-86
2022/02/17 01:45:46;;;;;;;3.33;1.70;;;;;;;10.15;100.00;97121.48;3544677;82;98948;-89
2022/02/17 01:50:47;;;;;;;3.67;1.70;;;;;;;10.25;100.00;97111.31;3536414;82;99313;-87
2022/02/17 01:55:53;;;;;;;3.50;1.70;;;;;;;10.33;100.00;97089.17;3541432;82;99424;-86
2022/02/17 02:00:54;;;;;;;4.47;1.70;;;;;;;10.37;100.00;97060.32;3533250;81;99337;-91
2022/02/17 02:05:54;;;;;;;3.23;1.60;;;;;;;10.40;100.00;97048.42;3534205;82;32132;-91
2022/02/17 02:10:55;;;;;;;3.13;1.27;;;;;;;10.43;100.00;97002.77;3548360;82;99043;-90
2022/02/17 02:15:57;;;;;;;3.00;1.60;;;;;;;10.47;100.00;96987.64;3532950;82;97822;-87
2022/02/17 02:20:58;;;;;;;3.17;1.20;;;;;;;10.55;100.00;96991.63;3529429;82;99177;-89
2022/02/17 02:26:00;;;;;;;1.80;1.20;;;;;;;10.63;100.00;96976.33;3544401;82;99298;-86
2022/02/17 02:31:00;;;;;;;1.83;1.27;;;;;;;10.74;100.00;96978.00;3540133;82;99382;-86
2022/02/17 02:36:02;;;;;;;2.97;1.40;;;;;;;10.78;100.00;96973.72;3529378;82;31466;-94
2022/02/17 02:41:03;;;;;;;1.63;1.13;;;;;;;10.79;100.00;96980.77;3527550;82;99205;-91
2022/02/17 02:46:06;;;;;;;3.10;1.40;;;;;;;10.75;100.00;96982.91;3556566;82;99061;-92
2022/02/17 02:51:09;;;;;;;1.70;1.40;;;;;;;10.73;100.00;97006.73;3521659;82;98794;-88
2022/02/17 02:56:09;;;;;;;1.32;0.70;;;;;;;10.72;100.00;97027.20;3552014;82;98856;-85
2022/02/17 03:01:10;;;;;;;5.53;0.57;;;;;;;10.70;100.00;97097.63;3529497;82;99174;-87
2022/02/17 03:06:11;;;;;;;3.77;0.57;;;;;;;10.30;100.00;97184.91;3549802;82;99142;-87
2022/02/17 03:11:13;;;;;;;2.93;0.40;;;;;;;9.57;100.00;97229.64;3538631;82;98616;-86
2022/02/17 03:16:14;;;;;;;8.50;0.70;;;;;;;9.03;100.00;97243.69;3526350;82;98914;-84
2022/02/17 03:21:15;;;;;;;1.90;0.50;;;;;;;8.71;100.00;97233.59;3531613;82;98567;-85
2022/02/17 03:26:15;;;;;;;2.50;0.40;;;;;;;8.51;100.00;97292.01;3535933;82;98884;-85
2022/02/17 03:31:16;;;;;;;1.97;0.40;;;;;;;8.41;100.00;97282.14;3539388;82;98137;-85
2022/02/17 03:36:17;;;;;;;4.80;0.50;;;;;;;8.33;100.00;97280.80;3552821;82;98788;-83
2022/02/17 03:41:18;;;;;;;3.46;0.52;;;;;;;8.26;100.00;97274.17;3535869;82;98130;-85
2022/02/17 03:46:19;;;;;;;2.27;0.47;;;;;;;8.14;100.00;97258.47;3534413;82;98652;-84
2022/02/17 03:51:20;;;;;;;1.73;0.40;;;;;;;8.04;100.00;97195.98;3534543;82;98557;-84
2022/02/17 03:56:21;;;;;;;5.10;0.60;;;;;;;7.99;100.00;97158.20;3537533;82;98817;-83
2022/02/17 04:01:21;;;;;;;4.77;0.73;;;;;;;7.92;100.00;97165.23;3541835;82;98991;-83
2022/02/17 04:06:22;;;;;;;4.97;1.17;;;;;;;7.86;100.00;97160.14;3545012;82;98837;-82
2022/02/17 04:11:24;;;;;;;5.93;1.70;;;;;;;7.80;100.00;97157.79;3535166;82;98548;-82
2022/02/17 04:16:25;;;;;;;8.30;1.80;;;;;;;7.74;100.00;97186.16;3548682;82;98748;-83
2022/02/17 04:21:26;;;;;;;7.60;1.77;;;;;;;7.64;100.00;97192.09;3528781;82;98442;-83
2022/02/17 04:26:27;;;;;;;9.10;2.00;;;;;;;7.54;100.00;97204.13;3538063;81;98842;-83
2022/02/17 04:31:28;;;;;;;6.27;1.40;;;;;;;7.44;100.00;97164.75;3553304;82;98829;-82
2022/02/17 04:36:29;;;;;;;7.60;1.80;;;;;;;7.34;100.00;97192.58;3542760;82;98836;-84
2022/02/17 04:46:49;;;;;;;7.35;1.52;;;;;;;7.14;100.00;97178.89;3519667;82;98640;-83
2022/02/17 04:51:50;;;;;;;6.63;1.47;;;;;;;7.07;100.00;97190.78;3555946;82;99117;-83
2022/02/17 04:56:51;;;;;;;6.20;2.07;;;;;;;7.03;100.00;97183.89;3533336;82;99004;-83
2022/02/17 05:01:52;;;;;;;6.53;1.40;;;;;;;6.99;100.00;97172.27;3545999;82;98780;-84
2022/02/17 05:06:53;;;;;;;7.87;1.75;;;;;;;6.98;100.00;97166.64;3515592;82;98884;-83
2022/02/17 05:11:53;;;;;;;7.00;1.50;;;;;;;6.98;100.00;97163.91;3539813;82;32396;-84
2022/02/17 05:16:54;;;;;;;3.77;1.20;;;;;;;6.99;100.00;97165.44;3535052;82;98683;-83
2022/02/17 05:21:55;;;;;;;5.47;1.30;;;;;;;7.00;100.00;97117.17;3542230;82;98435;-84
2022/02/17 05:26:56;;;;;;;10.40;1.97;;;;;;;7.01;100.00;97137.84;3532226;82;98775;-82
2022/02/17 05:31:57;;;;;;;6.60;1.65;;;;;;;7.00;100.00;97179.27;3548410;82;99007;-83
2022/02/17 05:36:58;;;;;;;5.40;1.40;;;;;;;7.01;100.00;97147.99;3538480;82;98825;-83
2022/02/17 05:41:59;;;;;;;11.97;2.17;;;;;;;7.03;100.00;97159.28;3543805;82;26016;-82
2022/02/17 05:47:00;;;;;;;10.63;1.90;;;;;;;7.01;100.00;97151.50;3533528;82;98651;-83
2022/02/17 05:52:01;;;;;;;8.83;2.50;;;;;;;7.01;100.00;97138.42;3543355;82;98659;-83
2022/02/17 05:57:03;;;;;;;9.23;1.57;;;;;;;7.01;100.00;97134.33;3528806;82;98744;-83
2022/02/17 06:02:06;;;;;;;10.33;2.10;;;;;;;7.03;100.00;97170.97;3544922;82;98380;-82
2022/02/17 06:07:06;;;;;;;9.03;2.10;;;;;;;7.07;100.00;97221.45;3529715;82;99001;-83
2022/02/17 06:12:08;;;;;;;7.37;1.70;;;;;;;7.12;100.00;97203.15;3541651;82;98950;-84
2022/02/17 06:17:09;;;;;;;7.60;1.97;;;;;;;7.18;100.00;97193.22;3527829;82;98828;-86
2022/02/17 06:22:11;;;;;;;8.77;1.43;;;;;;;7.25;100.00;97203.37;3548677;82;98327;-83
2022/02/17 06:27:12;;;;;;;6.03;1.35;;;;;;;7.25;100.00;97186.95;3528626;82;98964;-83
2022/02/17 06:32:13;;;;;;;6.87;0.90;;;;;;;7.29;100.00;97218.31;3543799;82;99051;-85
2022/02/17 06:37:13;;;;;;;5.50;1.13;;;;;;;7.33;100.00;97208.83;3534703;82;98810;-82
2022/02/17 06:42:14;;;;;;;6.73;1.10;;;;;;;7.36;100.00;97211.30;3539144;82;98743;-84
2022/02/17 06:47:15;;;;;;;5.00;1.20;;;;;;;7.35;100.00;97238.45;3532413;82;98419;-83
2022/02/17 06:52:16;;;;;;;4.37;0.80;;;;;;;7.37;99.65;97232.72;3533825;82;97749;-82
2022/02/17 06:57:21;;;;;;;3.43;0.80;;;;;;;7.41;98.71;97242.97;3534116;82;98683;-83
2022/02/17 07:02:27;;;;;;;5.47;0.90;;;;;;;7.40;96.74;97225.03;3538083;82;98665;-82
2022/02/17 07:07:28;;;;;;;5.07;1.20;;;;;;;7.40;96.73;97246.13;3508564;82;98613;-84
2022/02/17 07:12:29;;;;;;;4.83;0.90;;;;;;;7.40;93.94;97269.39;3536105;82;98566;-88
2022/02/17 07:17:30;;;;;;;6.63;1.10;;;;;;;7.41;93.50;97281.27;3532753;82;98246;-86
2022/02/17 07:22:31;;;;;;;6.97;1.10;;;;;;;7.41;92.53;97291.46;3538845;82;98557;-85
2022/02/17 07:27:32;;;;;;;10.27;2.27;;;;;;;7.39;92.70;97297.94;3527372;82;98650;-86
2022/02/17 07:32:33;;;;;;;8.20;1.20;;;;;;;7.38;92.15;97278.64;3546724;82;98719;-89
2022/02/17 07:37:34;;;;;;;8.47;1.50;;;;;;;7.39;92.23;97306.93;3502446;82;98775;-88
2022/02/17 07:42:36;;;;;;;10.77;1.80;;;;;;;7.44;91.12;97287.84;3538390;81;98754;-91
2022/02/17 07:47:40;;;;;;;13.95;2.00;;;;;;;7.48;91.15;97286.55;3525491;82;98548;-89
2022/02/17 07:52:40;;;;;;;7.03;1.40;;;;;;;7.55;90.73;97285.01;3526290;82;98547;-91
2022/02/17 07:57:41;;;;;;;7.00;2.17;;;;;;;7.63;90.48;97312.95;3535972;81;98898;-84
2022/02/17 08:02:42;;;;;;;5.90;1.40;;;;;;;7.74;87.75;97298.38;3530937;82;98633;-89
2022/02/17 08:07:43;;;;;;;9.37;1.70;;;;;;;7.90;89.17;97319.59;3526620;82;98587;-87
2022/02/17 08:12:44;;;;;;;13.03;1.77;;;;;;;8.03;87.50;97320.41;3534448;82;98561;-87
2022/02/17 08:17:45;;;;;;;9.00;1.70;;;;;;;8.17;87.02;97309.03;3525652;82;98554;-82
2022/02/17 08:22:54;;;;;;;9.13;1.40;;;;;;;8.35;84.59;97298.34;3529618;82;98239;-90
2022/02/17 08:27:55;;;;;;;12.00;1.90;;;;;;;8.56;82.45;97300.44;3522019;81;98613;-92
2022/02/17 08:32:57;;;;;;;7.33;1.80;;;;;;;8.68;82.26;97308.50;3539633;82;97892;-87
2022/02/17 08:38:00;;;;;;;6.95;1.50;;;;;;;8.87;81.03;97278.70;3531991;82;99049;-90
2022/02/17 08:43:13;;;;;;;6.70;2.12;;;;;;;9.06;80.68;97288.04;3512569;82;98776;-90
2022/02/17 08:48:14;;;;;;;7.67;1.50;;;;;;;9.27;79.37;97296.94;3527198;81;98753;-89
2022/02/17 08:53:14;;;;;;;6.83;1.80;;;;;;;9.32;81.63;97296.38;3539705;82;25726;-88
2022/02/17 08:58:16;;;;;;;9.00;2.27;;;;;;;9.27;80.54;97295.56;3529511;82;98632;-93
2022/02/17 09:03:17;;;;;;;7.63;2.00;;;;;;;9.18;78.54;97288.64;3532886;82;98834;-87
2022/02/17 09:08:17;;;;;;;12.23;2.10;;;;;;;9.12;79.69;97278.06;3529592;82;98810;-90
2022/02/17 09:13:18;;;;;;;5.93;1.37;;;;;;;9.07;78.29;97269.62;3533733;82;98974;-88
2022/02/17 09:18:19;;;;;;;11.87;1.87;;;;;;;9.06;77.91;97278.44;3537027;82;98651;-90
2022/02/17 09:23:23;;;;;;;15.03;2.30;;;;;;;9.06;78.14;97264.72;3517394;82;26145;-88
2022/02/17 09:28:23;;;;;;;13.33;1.83;;;;;;;9.09;74.53;97273.45;3528239;82;98583;-86
2022/02/17 09:33:24;;;;;;;13.57;2.33;;;;;;;9.14;75.14;97277.01;3536670;82;98880;-85
2022/02/17 09:38:25;;;;;;;9.27;2.97;;;;;;;9.16;71.98;97293.78;3528451;82;98797;-91
2022/02/17 09:43:26;;;;;;;13.23;2.00;;;;;;;9.20;73.98;97310.90;3533757;81;98626;-87
2022/02/17 09:48:28;;;;;;;15.33;2.77;;;;;;;9.16;73.58;97326.70;3529377;82;98803;-88
2022/02/17 09:53:29;;;;;;;12.20;2.10;;;;;;;9.02;74.41;97348.34;3533253;82;26550;-90
2022/02/17 09:58:30;;;;;;;11.77;2.33;;;;;;;8.81;75.58;97375.05;3535752;82;98880;-90
2022/02/17 10:03:37;;;;;;;11.77;1.73;;;;;;;8.60;76.97;97397.03;3535368;82;98404;-90
2022/02/17 10:08:38;;;;;;;7.80;1.77;;;;;;;8.38;77.89;97366.56;3529961;82;98979;-86
2022/02/17 10:13:39;;;;;;;8.18;1.57;;;;;;;8.23;78.76;97368.95;3537236;82;98653;-92
2022/02/17 10:18:41;;;;;;;8.73;1.98;;;;;;;8.16;79.51;97388.89;3519728;82;98817;-89
2022/02/17 10:23:49;;;;;;;11.57;1.97;;;;;;;8.11;80.39;97399.78;3504248;82;26493;-87
2022/02/17 10:29:01;;;;;;;10.20;2.17;;;;;;;8.08;79.87;97398.52;3533585;82;98648;-90
2022/02/17 10:34:09;;;;;;;9.30;2.05;;;;;;;8.02;80.92;97447.55;3526306;82;98693;-86
2022/02/17 10:39:26;;;;;;;7.45;1.45;;;;;;;7.87;83.04;97417.66;3528193;82;98788;-91
2022/02/17 10:44:34;;;;;;;10.15;2.15;;;;;;;7.68;84.11;97434.20;3530007;82;98603;-91
2022/02/17 10:49:51;;;;;;;11.73;2.58;;;;;;;7.61;84.45;97436.52;3529725;82;98601;-91
2022/02/17 10:55:13;;;;;;;;;;;;;;;7.70;84.69;97444.11;3538081;81;98800;-89
2022/02/17 11:00:21;;;;;;;9.30;2.05;;;;;;;7.87;83.01;97458.73;3536278;82;85124;-90
2022/02/17 11:05:25;;;;;;;10.28;2.25;;;;;;;8.02;82.98;97455.02;3531642;82;32246;-89
2022/02/17 11:10:26;;;;;;;10.80;2.70;;;;;;;8.13;82.52;97457.63;3525286;82;98622;-90
2022/02/17 11:15:28;;;;;;;11.90;3.03;;;;;;;8.25;82.61;97472.02;3535807;82;97993;-89
2022/02/17 11:20:30;;;;;;;8.80;1.73;;;;;;;8.35;82.03;97472.31;3523463;82;98989;-87
2022/02/17 11:25:41;;;;;;;11.22;2.37;;;;;;;8.39;80.65;97481.21;3536104;82;98577;-90
2022/02/17 11:30:46;;;;;;;14.25;3.02;;;;;;;8.42;81.33;97492.69;3532338;82;98757;-90
2022/02/17 11:35:50;;;;;;;9.70;1.98;;;;;;;8.41;79.76;97504.83;3521355;82;32317;-90
2022/02/17 11:41:10;;;;;;;9.35;1.85;;;;;;;8.44;80.34;97507.30;3523262;82;98273;-87
2022/02/17 11:46:17;;;;;;;8.70;1.30;;;;;;;8.45;81.20;97540.38;3535020;82;98489;-88
2022/02/17 11:51:21;;;;;;;7.83;1.37;;;;;;;8.42;81.28;97543.38;3527980;82;98189;-88
2022/02/17 11:56:31;;;;;;;10.68;2.55;;;;;;;8.37;82.23;97552.70;3538465;82;98826;-86
2022/02/17 12:01:37;;;;;;;4.60;1.72;;;;;;;8.32;83.02;97571.04;3531396;82;98743;-92
2022/02/17 12:06:46;;;;;;;11.43;1.85;;;;;;;8.30;82.89;97596.73;3533345;82;98663;-88
2022/02/17 12:11:48;;;;;;;4.53;1.20;;;;;;;8.23;84.07;97613.36;3533935;82;32390;-90
2022/02/17 12:17:02;;;;;;;5.08;1.00;;;;;;;8.08;85.05;97639.52;3527853;82;98462;-82
2022/02/17 12:21:54;;;;;;;6.40;1.27;;;;;;;7.97;86.79;97631.53;3533580;82;98157;-88
2022/02/17 12:26:55;;;;;;;5.22;1.10;;;;;;;7.83;88.59;97644.78;3537558;81;98748;-92
2022/02/17 12:32:00;;;;;;;12.50;3.27;;;;;;;7.71;89.14;97646.81;3536447;82;98739;-90
2022/02/17 12:37:02;;;;;;;7.83;2.03;;;;;;;7.63;91.01;97644.83;3526570;82;98850;-89
2022/02/17 12:42:07;;;;;;;4.63;1.20;;;;;;;7.58;91.30;97662.36;3543498;82;26064;-89
2022/02/17 12:47:11;;;;;;;7.70;1.63;;;;;;;7.57;91.03;97688.94;3510619;82;99744;-89
2022/02/17 12:52:20;;;;;;;3.95;1.10;;;;;;;7.60;90.27;97704.53;3537982;82;98581;-89
2022/02/17 12:57:21;;;;;;;6.65;1.27;;;;;;;7.59;90.64;97720.75;3525434;82;98552;-86
2022/02/17 13:02:23;;;;;;;5.80;1.20;;;;;;;7.55;91.42;97736.49;3533441;82;98755;-88
2022/02/17 13:07:29;;;;;;;5.80;1.47;;;;;;;7.47;92.08;97735.07;3532312;82;98645;-87
2022/02/17 13:12:28;;;;;;;9.45;2.08;;;;;;;7.40;93.28;97744.01;3538472;82;97943;-91
2022/02/17 13:17:35;;;;;;;5.95;1.95;;;;;;;7.35;93.15;97767.75;3530132;82;98441;-91
2022/02/17 13:22:44;;;;;;;3.12;1.00;;;;;;;7.33;93.79;97796.13;3528715;82;98243;-90
2022/02/17 13:27:47;;;;;;;4.17;1.12;;;;;;;7.27;94.19;97815.00;3523216;82;98463;-90
2022/02/17 13:33:00;;;;;;;4.72;1.22;;;;;;;7.20;95.19;97842.45;3530510;82;98778;-91
2022/02/17 13:38:09;;;;;;;5.28;1.90;;;;;;;7.14;95.80;97861.14;3526638;82;98389;-88
2022/02/17 13:43:10;;;;;;;3.98;1.22;;;;;;;7.01;96.31;97882.03;3531242;82;98415;-93
2022/02/17 13:48:35;;;;;;;3.40;1.10;;;;;;;6.90;96.61;97900.56;3530425;82;98375;-90
2022/02/17 13:53:40;;;;;;;6.67;1.80;;;;;;;6.78;97.94;97922.42;3530943;82;32279;-90
2022/02/17 13:58:42;;;;;;;5.65;1.50;;;;;;;6.63;98.12;97942.92;3522363;82;98766;-87
2022/02/17 14:03:49;;;;;;;11.07;3.50;;;;;;;6.56;99.17;97948.48;3526775;82;98406;-88
2022/02/17 14:08:50;;;;;;;7.85;2.33;;;;;;;6.54;99.25;97977.41;3526952;82;98456;-88
2022/02/17 14:13:51;;;;;;;6.07;1.70;;;;;;;6.45;99.08;97999.75;3534077;82;98375;-91
2022/02/17 14:18:53;;;;;;;3.53;1.10;;;;;;;6.39;98.86;98024.58;3530284;82;98265;-88
2022/02/17 14:23:54;;;;;;;3.50;1.10;;;;;;;6.37;98.94;98039.82;3541677;82;25798;-90
2022/02/17 14:28:55;;;;;;;3.90;0.77;;;;;;;6.35;98.38;98069.51;3535631;82;98542;-92
2022/02/17 14:33:56;;;;;;;3.17;1.10;;;;;;;6.33;97.85;98074.61;3535383;82;98719;-93
2022/02/17 14:38:57;;;;;;;3.70;0.80;;;;;;;6.34;97.94;98087.08;3534469;81;98280;-93
2022/02/17 14:44:01;;;;;;;3.13;1.00;;;;;;;6.35;97.41;98122.19;3541858;82;98382;-88
2022/02/17 14:49:02;;;;;;;3.27;0.78;;;;;;;6.35;97.58;98132.33;3530267;81;98374;-91
2022/02/17 14:54:04;;;;;;;2.83;0.80;;;;;;;6.33;96.80;98153.81;3542622;82;25618;-90
2022/02/17 14:59:05;;;;;;;3.92;0.90;;;;;;;6.32;96.83;98160.47;3530086;82;98309;-92
2022/02/17 15:04:06;;;;;;;5.70;1.53;;;;;;;6.30;96.86;98184.08;3541912;82;97382;-91
2022/02/17 15:09:09;;;;;;;12.93;3.90;;;;;;;6.28;96.90;98195.22;3536185;82;98602;-87
2022/02/17 15:14:09;;;;;;;13.65;4.42;;;;;;;6.26;96.74;98213.36;3541810;82;98852;-86
2022/02/17 15:19:10;;;;;;;10.63;3.70;;;;;;;6.27;96.92;98227.81;3540911;82;98475;-91
2022/02/17 15:24:11;;;;;;;8.97;3.13;;;;;;;6.26;96.85;98248.87;3539322;81;25922;-90
2022/02/17 15:29:16;;;;;;;8.13;2.30;;;;;;;6.22;96.55;98256.91;3532960;82;98486;-90
2022/02/17 15:34:16;;;;;;;5.53;1.72;;;;;;;6.19;96.22;98263.16;3539341;82;98191;-89
2022/02/17 15:39:17;;;;;;;5.97;2.00;;;;;;;6.15;95.79;98280.94;3526002;82;98368;-90
2022/02/17 15:44:18;;;;;;;9.73;3.47;;;;;;;6.07;95.20;98295.81;3549087;81;98356;-89
2022/02/17 15:49:19;;;;;;;7.13;2.30;;;;;;;6.04;95.23;98322.53;3536755;82;98806;-89
2022/02/17 15:54:21;;;;;;;16.10;6.33;;;;;;;6.00;95.28;98336.02;3542446;82;26137;-90
2022/02/17 15:59:22;;;;;;;5.78;1.90;;;;;;;5.92;95.75;98352.22;3533194;82;98770;-90
2022/02/17 16:04:23;;;;;;;9.00;3.03;;;;;;;5.79;95.55;98362.75;3537912;82;98307;-92
2022/02/17 16:09:23;;;;;;;6.90;2.30;;;;;;;5.67;95.96;98380.16;3511755;82;98245;-88
2022/02/17 16:14:26;;;;;;;11.87;5.10;;;;;;;5.51;96.08;98392.84;3546296;82;97461;-89
2022/02/17 16:19:27;;;;;;;5.67;1.60;;;;;;;5.37;97.02;98403.00;3543045;82;98626;-91
2022/02/17 16:24:30;;;;;;;6.83;2.03;;;;;;;5.21;97.66;98412.16;3545573;82;26024;-93
2022/02/17 16:29:32;;;;;;;5.43;2.47;;;;;;;5.07;98.18;98432.62;3532706;82;98338;-88
2022/02/17 16:34:33;;;;;;;8.17;2.73;;;;;;;4.92;99.51;98426.95;3542141;82;98164;-90
2022/02/17 16:39:34;;;;;;;9.00;2.87;;;;;;;4.82;99.79;98438.61;3538251;82;98654;-94
2022/02/17 16:44:37;;;;;;;18.40;5.40;;;;;;;4.76;100.00;98461.36;3537096;82;98405;-90
2022/02/17 16:49:39;;;;;;;29.32;11.63;;;;;;;4.70;100.00;98473.03;3533639;82;98581;-93
2022/02/17 16:54:40;;;;;;;11.03;3.72;;;;;;;4.66;100.00;98483.92;3538528;82;98790;-91
2022/02/17 16:59:41;;;;;;;17.40;6.40;;;;;;;4.61;100.00;98494.40;3533312;82;98858;-93
2022/02/17 17:04:42;;;;;;;7.70;2.90;;;;;;;4.53;100.00;98492.23;3525419;82;98500;-92
2022/02/17 17:09:44;;;;;;;14.93;3.47;;;;;;;4.51;100.00;98489.12;3539596;82;98887;-92
2022/02/17 17:14:45;;;;;;;10.63;3.23;;;;;;;4.48;100.00;98486.39;3542879;82;98950;-92
2022/02/17 17:19:47;;;;;;;8.40;3.57;;;;;;;4.43;100.00;98494.92;3535922;82;99089;-93
2022/02/17 17:24:48;;;;;;;6.87;1.83;;;;;;;4.42;100.00;98509.11;3543923;82;98897;-91
2022/02/17 17:29:49;;;;;;;6.37;2.37;;;;;;;4.43;100.00;98523.52;3546841;82;98263;-93
2022/02/17 17:34:50;;;;;;;9.37;3.37;;;;;;;4.40;100.00;98522.34;3543180;82;98680;-93
2022/02/17 17:39:54;;;;;;;6.57;2.63;;;;;;;4.40;100.00;98539.24;3536779;82;98546;-91
2022/02/17 17:50:16;;;;;;;12.65;4.03;;;;;;;4.37;100.00;98559.08;3527653;82;98582;-90
2022/02/17 17:55:17;;;;;;;15.07;8.20;;;;;;;4.40;100.00;98571.35;3538414;82;99074;-89
2022/02/17 18:00:20;;;;;;;7.03;3.00;;;;;;;4.45;100.00;98579.16;3537014;82;98459;-89
2022/02/17 18:05:24;;;;;;;5.83;2.62;;;;;;;4.52;100.00;98583.84;3536239;82;98831;-90
2022/02/17 18:10:24;;;;;;;14.93;4.22;;;;;;;4.57;100.00;98596.54;3531194;82;98739;-90
2022/02/17 18:15:26;;;;;;;26.40;6.03;;;;;;;4.63;100.00;98595.01;3540889;82;98646;-86
2022/02/17 18:20:27;;;;;;;23.32;7.45;;;;;;;4.66;100.00;98613.33;3522034;82;98678;-90
2022/02/17 18:25:32;;;;;;;12.50;3.57;;;;;;;4.67;100.00;98632.59;3542279;82;98669;-88
2022/02/17 18:30:36;;;;;;;11.05;3.40;;;;;;;4.66;100.00;98626.95;3532130;82;98627;-86
2022/02/17 18:35:38;;;;;;;5.17;1.82;;;;;;;4.68;100.00;98626.55;3540042;82;97686;-87
2022/02/17 18:40:39;;;;;;;8.77;2.53;;;;;;;4.70;100.00;98643.31;3520944;82;98520;-87
2022/02/17 18:45:42;;;;;;;7.95;1.92;;;;;;;4.72;100.00;98637.69;3504791;82;98837;-91
2022/02/17 18:50:44;;;;;;;5.57;1.77;;;;;;;4.72;100.00;98655.39;3521644;82;98955;-89
2022/02/17 18:55:46;;;;;;;5.40;1.70;;;;;;;4.74;100.00;98650.94;3530357;81;98573;-85
2022/02/17 19:00:49;;;;;;;9.43;1.85;;;;;;;4.77;100.00;98659.69;3527764;82;98509;-90
2022/02/17 19:05:50;;;;;;;5.42;1.60;;;;;;;4.77;100.00;98662.42;3543734;82;32315;-86
2022/02/17 19:10:53;;;;;;;6.45;1.85;;;;;;;4.76;100.00;98669.80;3522151;82;98859;-85
2022/02/17 19:15:54;;;;;;;10.98;4.37;;;;;;;4.74;100.00;98677.59;3532773;82;98568;-88
2022/02/17 19:20:59;;;;;;;9.07;1.87;;;;;;;4.72;100.00;98675.03;3497784;82;98646;-87
2022/02/17 19:26:00;;;;;;;7.83;1.80;;;;;;;4.72;100.00;98706.37;3532173;82;98894;-87
2022/02/17 19:31:03;;;;;;;11.15;2.42;;;;;;;4.65;100.00;98693.47;3520504;82;98896;-86
2022/02/17 19:36:07;;;;;;;9.20;1.85;;;;;;;4.59;100.00;98695.59;3523089;82;32233;-94
2022/02/17 19:41:09;;;;;;;11.25;2.80;;;;;;;4.56;100.00;98702.58;3527209;81;98655;-94
2022/02/17 19:46:11;;;;;;;9.75;2.05;;;;;;;4.52;100.00;98722.76;3537021;82;98902;-86
2022/02/17 19:51:12;;;;;;;9.90;1.80;;;;;;;4.52;100.00;98730.36;3529426;82;98892;-92
2022/02/17 19:56:13;;;;;;;8.73;1.90;;;;;;;4.52;100.00;98740.47;3540825;82;98471;-87
2022/02/17 20:01:14;;;;;;;7.87;2.00;;;;;;;4.53;100.00;98754.31;3534903;81;98921;-86
2022/02/17 20:06:16;;;;;;;8.93;1.87;;;;;;;4.53;100.00;98753.71;3543823;82;26002;-86
2022/02/17 20:11:17;;;;;;;8.05;2.40;;;;;;;4.56;100.00;98778.06;3530006;81;98706;-86
2022/02/17 20:16:19;;;;;;;15.63;2.70;;;;;;;4.55;100.00;98780.02;3542533;82;98828;-86
2022/02/17 20:21:19;;;;;;;7.13;1.97;;;;;;;4.53;100.00;98778.23;3505227;82;98830;-86
2022/02/17 20:26:23;;;;;;;29.30;6.77;;;;;;;4.54;100.00;98801.58;3542006;82;98498;-85
2022/02/17 20:31:24;;;;;;;20.70;4.97;;;;;;;4.54;100.00;98794.00;3529231;82;98643;-84
2022/02/17 20:36:25;;;;;;;12.87;2.73;;;;;;;4.55;100.00;98814.63;3539552;82;26387;-85
2022/02/17 20:41:27;;;;;;;12.28;2.80;;;;;;;4.55;100.00;98822.80;3531813;82;98797;-86
2022/02/17 20:57:06;;;;;;;12.28;2.87;;;;;;;4.52;100.00;98836.59;3534088;82;99132;-87
2022/02/17 21:02:07;;;;;;;10.40;1.80;;;;;;;4.50;100.00;98847.09;3508674;82;98647;-87
2022/02/17 21:07:09;;;;;;;7.20;2.13;;;;;;;4.49;100.00;98858.36;3537663;82;98750;-85
2022/02/17 21:12:10;;;;;;;8.10;1.70;;;;;;;4.48;100.00;98843.94;3545730;82;25891;-86
2022/02/17 21:17:10;;;;;;;10.93;1.95;;;;;;;4.46;100.00;98857.16;3532962;82;98501;-86
2022/02/17 21:22:12;;;;;;;13.43;2.30;;;;;;;4.46;100.00;98876.80;3549756;82;98459;-87
2022/02/17 21:27:14;;;;;;;10.93;2.50;;;;;;;4.43;100.00;98889.22;3531660;81;98765;-86
2022/02/17 21:32:15;;;;;;;10.10;2.03;;;;;;;4.45;100.00;98901.91;3541373;82;99074;-87
2022/02/17 21:37:16;;;;;;;11.13;2.33;;;;;;;4.46;100.00;98911.64;3542508;82;98986;-88
2022/02/17 21:42:17;;;;;;;7.83;2.00;;;;;;;4.50;100.00;98919.84;3547573;82;25894;-87
2022/02/17 21:47:18;;;;;;;9.97;1.90;;;;;;;4.54;100.00;98926.88;3506797;82;98482;-87
2022/02/17 21:52:20;;;;;;;10.50;2.00;;;;;;;4.60;99.24;98923.27;3549417;82;98353;-86
2022/02/17 21:57:21;;;;;;;10.87;2.00;;;;;;;4.63;98.20;98919.80;3540107;82;98499;-88
2022/02/17 22:02:22;;;;;;;12.33;2.63;;;;;;;4.61;97.17;98928.91;3538845;82;98502;-88
2022/02/17 22:07:22;;;;;;;10.93;2.30;;;;;;;4.63;96.91;98941.59;3495699;82;98555;-89
2022/02/17 22:12:23;;;;;;;14.93;3.00;;;;;;;4.64;96.11;98948.02;3537191;82;25966;-87
2022/02/17 22:17:24;;;;;;;9.08;1.80;;;;;;;4.65;95.88;98952.90;3526805;82;99272;-88
2022/02/17 22:22:25;;;;;;;9.67;2.40;;;;;;;4.66;94.80;98959.91;3537050;82;98563;-88
2022/02/17 22:27:26;;;;;;;18.60;2.80;;;;;;;4.70;95.15;98952.56;3543444;82;98364;-89
2022/02/17 22:32:27;;;;;;;10.60;2.60;;;;;;;4.77;93.22;98967.62;3539423;82;98521;-85
2022/02/17 22:37:28;;;;;;;8.33;1.70;;;;;;;4.80;93.72;98981.28;3528847;82;98912;-85
2022/02/17 22:42:29;;;;;;;15.33;2.47;;;;;;;4.83;93.36;98985.99;3539783;82;33553;-88
2022/02/17 22:47:30;;;;;;;7.47;1.40;;;;;;;4.87;92.81;99007.27;3500429;82;98417;-85
2022/02/17 22:52:31;;;;;;;14.57;2.50;;;;;;;4.95;92.53;99000.72;3545392;82;98065;-86
2022/02/17 22:57:33;;;;;;;10.70;2.03;;;;;;;4.97;92.20;99001.12;3539854;81;98850;-85
2022/02/17 23:02:33;;;;;;;13.23;2.00;;;;;;;5.00;91.53;99013.22;3539712;82;98894;-88
2022/02/17 23:10:45;;;;;;;8.83;2.07;;;;;;;5.04;91.17;98999.05;3534170;82;98778;-86
2022/02/17 23:12:43;;;;;;;16.43;3.87;;;;;;;5.07;90.47;99020.89;3535736;82;33094;-85
2022/02/17 23:23:00;;;;;;;8.90;1.85;;;;;;;5.07;90.47;99028.30;3536099;82;99129;-86
2022/02/17 23:28:02;;;;;;;12.97;2.30;;;;;;;5.06;90.56;99016.61;3545754;82;98791;-87
2022/02/17 23:33:04;;;;;;;13.83;2.63;;;;;;;5.02;89.53;99017.14;3510455;82;99061;-86
2022/02/17 23:38:05;;;;;;;9.38;2.20;;;;;;;4.99;90.19;99025.28;3534201;82;99631;-86
2022/02/17 23:43:11;;;;;;;9.60;2.00;;;;;;;4.93;90.54;99033.59;3540497;80;98600;-87
2022/02/17 23:48:10;;;;;;;16.30;3.10;;;;;;;4.90;90.08;99037.05;3503328;82;98028;-85
2022/02/17 23:53:11;;;;;;;11.12;2.05;;;;;;;4.88;89.95;99050.28;3542169;82;98584;-85
2022/02/17 23:58:14;;;;;;;7.73;1.90;;;;;;;4.91;89.20;99083.62;3533806;82;98698;-88
